Time,TemperatureF,DewpointF,PressureIn,WindDirection,WindDirectionDegrees,WindSpeedMPH,WindSpeedGustMPH,Humidity,HourlyPrecipIn,Conditions,Clouds,dailyrainin,SolarRadiationWatts/m^2,SoftwareType,DateUTC
2013-04-14 00:00:00,31.4,17.5,29.79,North,349,14.0,17.0,56,0.00,,,0.27,32767.00,ALWS 1.0-beta,2013-04-14 06:00:00,
2013-04-14 00:05:00,31.3,17.0,29.78,NNW,340,12.0,22.0,55,0.00,,,0.00,32767.00,ALWS 1.0-beta,2013-04-14 06:05:00,
2013-04-14 00:10:00,31.1,16.4,29.78,NW,323,16.0,19.0,54,0.00,,,0.00,32767.00,ALWS 1.0-beta,2013-04-14 06:10:00,
2013-04-14 00:15:00,31.1,16.0,29.79,North,360,14.0,21.0,53,0.00,,,0.00,32767.00,ALWS 1.0-beta,2013-04-14 06:15:00,
2013-04-14 00:20:00,31.1,15.1,29.79,NNW,340,19.0,23.0,51,0.00,,,0.00,32767.00,ALWS 1.0-beta,2013-04-14 06:20:00,
2013-04-14 00:25:00,31.1,14.6,29.79,NW,326,24.0,24.0,50,0.00,,,0.00,32767.00,ALWS 1.0-beta,2013-04-14 06:25:00,
2013-04-14 00:30:00,31.1,14.2,29.79,NNW,341,20.0,24.0,49,0.00,,,0.00,32767.00,ALWS 1.0-beta,2013-04-14 06:30:00,
2013-04-14 00:35:00,31.0,14.6,29.80,NNW,339,20.0,22.0,50,0.00,,,0.00,32767.00,ALWS 1.0-beta,2013-04-14 06:35:00,
2013-04-14 00:40:00,30.8,14.8,29.80,NNW,343,14.0,17.0,51,0.00,,,0.00,32767.00,ALWS 1.0-beta,2013-04-14 06:40:00,
2013-04-14 00:45:00,30.5,15.0,29.80,NNW,330,12.0,16.0,52,0.00,,,0.00,32767.00,ALWS 1.0-beta,2013-04-14 06:45:00,
2013-04-14 00:50:00,30.2,15.1,29.80,NNW,334,14.0,14.0,53,0.00,,,0.00,32767.00,ALWS 1.0-beta,2013-04-14 06:50:00,
2013-04-14 00:55:00,30.1,14.6,29.79,NNW,340,10.0,17.0,52,0.00,,,0.00,32767.00,ALWS 1.0-beta,2013-04-14 06:55:00,
2013-04-14 01:00:00,30.2,14.7,29.79,North,355,14.0,14.0,52,0.00,,,0.00,32767.00,ALWS 1.0-beta,2013-04-14 07:00:00,
2013-04-14 01:05:00,30.1,14.2,29.80,NNW,345,11.0,20.0,51,0.00,,,0.00,32767.00,ALWS 1.0-beta,2013-04-14 07:05:00,
2013-04-14 01:10:00,29.9,14.4,29.80,North,355,13.0,16.0,52,0.00,,,0.00,32767.00,ALWS 1.0-beta,2013-04-14 07:10:00,
2013-04-14 01:15:00,29.9,14.4,29.81,NNW,328,3.0,18.0,52,0.00,,,0.00,32767.00,ALWS 1.0-beta,2013-04-14 07:15:00,
2013-04-14 01:20:00,29.7,14.2,29.80,NNW,336,10.0,13.0,52,0.00,,,0.00,32767.00,ALWS 1.0-beta,2013-04-14 07:20:00,
2013-04-14 01:25:00,29.6,14.1,29.81,North,9,4.0,15.0,52,0.00,,,0.00,32767.00,ALWS 1.0-beta,2013-04-14 07:25:00,
2013-04-14 01:30:00,29.4,14.0,29.81,NNW,348,9.0,14.0,52,0.00,,,0.00,32767.00,ALWS 1.0-beta,2013-04-14 07:30:00,
2013-04-14 01:35:00,29.2,13.3,29.81,NNW,345,7.0,15.0,51,0.00,,,0.00,32767.00,ALWS 1.0-beta,2013-04-14 07:35:00,
2013-04-14 01:40:00,29.1,12.8,29.81,North,360,8.0,14.0,50,0.00,,,0.00,32767.00,ALWS 1.0-beta,2013-04-14 07:40:00,
2013-04-14 01:45:00,29.0,11.8,29.81,North,350,9.0,13.0,48,0.00,,,0.00,32767.00,ALWS 1.0-beta,2013-04-14 07:45:00,
2013-04-14 01:50:00,28.8,12.1,29.81,NNW,327,7.0,12.0,49,0.00,,,0.00,32767.00,ALWS 1.0-beta,2013-04-14 07:50:00,
2013-04-14 01:55:00,28.8,11.1,29.81,NNW,345,7.0,12.0,47,0.00,,,0.00,32767.00,ALWS 1.0-beta,2013-04-14 07:55:00,
2013-04-14 02:00:00,28.6,10.0,29.81,NNW,348,13.0,15.0,45,0.00,,,0.00,32767.00,ALWS 1.0-beta,2013-04-14 08:00:00,
2013-04-14 02:05:00,28.4,9.3,29.81,NNE,25,11.0,12.0,44,0.00,,,0.00,32767.00,ALWS 1.0-beta,2013-04-14 08:05:00,
2013-04-14 02:10:00,28.4,9.3,29.81,North,360,5.0,11.0,44,0.00,,,0.00,32767.00,ALWS 1.0-beta,2013-04-14 08:10:00,
2013-04-14 02:15:00,28.1,9.5,29.81,NNW,343,6.0,10.0,45,0.00,,,0.00,32767.00,ALWS 1.0-beta,2013-04-14 08:15:00,
2013-04-14 02:20:00,27.9,9.3,29.81,NNW,345,12.0,12.0,45,0.00,,,0.00,32767.00,ALWS 1.0-beta,2013-04-14 08:20:00,
2013-04-14 02:25:00,27.9,8.8,29.81,North,350,12.0,13.0,44,0.00,,,0.00,32767.00,ALWS 1.0-beta,2013-04-14 08:25:00,
2013-04-14 02:30:00,27.8,9.2,29.81,North,355,9.0,12.0,45,0.00,,,0.00,32767.00,ALWS 1.0-beta,2013-04-14 08:30:00,
2013-04-14 02:35:00,28.1,8.0,29.81,NNW,332,15.0,15.0,42,0.00,,,0.00,32767.00,ALWS 1.0-beta,2013-04-14 08:35:00,
2013-04-14 02:40:00,28.0,7.4,29.82,NNW,337,15.0,17.0,41,0.00,,,0.00,32767.00,ALWS 1.0-beta,2013-04-14 08:40:00,
2013-04-14 02:45:00,28.0,8.4,29.82,NNW,337,7.0,14.0,43,0.00,,,0.00,32767.00,ALWS 1.0-beta,2013-04-14 08:45:00,
2013-04-14 02:50:00,27.7,8.1,29.82,NNW,334,6.0,9.0,43,0.00,,,0.00,32767.00,ALWS 1.0-beta,2013-04-14 08:50:00,
2013-04-14 02:55:00,27.5,7.9,29.82,NNW,340,4.0,12.0,43,0.00,,,0.00,32767.00,ALWS 1.0-beta,2013-04-14 08:55:00,
2013-04-14 03:00:00,27.4,7.9,29.82,NNW,330,17.0,17.0,43,0.00,,,0.00,32767.00,ALWS 1.0-beta,2013-04-14 09:00:00,
2013-04-14 03:05:00,27.6,7.0,29.82,NNW,340,11.0,12.0,41,0.00,,,0.00,32767.00,ALWS 1.0-beta,2013-04-14 09:05:00,
2013-04-14 03:10:00,27.6,6.4,29.83,NNW,335,7.0,14.0,40,0.00,,,0.00,32767.00,ALWS 1.0-beta,2013-04-14 09:10:00,
2013-04-14 03:15:00,27.5,5.8,29.83,NNW,344,4.0,12.0,39,0.00,,,0.00,32767.00,ALWS 1.0-beta,2013-04-14 09:15:00,
2013-04-14 03:20:00,27.4,6.3,29.83,NNW,341,3.0,12.0,40,0.00,,,0.00,32767.00,ALWS 1.0-beta,2013-04-14 09:20:00,
2013-04-14 03:25:00,27.2,6.1,29.83,NNW,342,0.0,6.0,40,0.00,,,0.00,32767.00,ALWS 1.0-beta,2013-04-14 09:25:00,
2013-04-14 03:30:00,26.8,6.8,29.82,North,360,2.0,5.0,42,0.00,,,0.00,32767.00,ALWS 1.0-beta,2013-04-14 09:30:00,
2013-04-14 03:35:00,26.3,6.9,29.83,North,360,5.0,5.0,43,0.00,,,0.00,32767.00,ALWS 1.0-beta,2013-04-14 09:35:00,
2013-04-14 03:40:00,26.1,7.2,29.83,North,360,0.0,1.0,44,0.00,,,0.00,32767.00,ALWS 1.0-beta,2013-04-14 09:40:00,
2013-04-14 03:45:00,25.8,6.9,29.83,North,355,0.0,4.0,44,0.00,,,0.00,32767.00,ALWS 1.0-beta,2013-04-14 09:45:00,
2013-04-14 03:50:00,25.6,7.2,29.83,North,355,0.0,0.0,45,0.00,,,0.00,32767.00,ALWS 1.0-beta,2013-04-14 09:50:00,
2013-04-14 03:55:00,25.3,6.9,29.83,North,355,0.0,0.0,45,0.00,,,0.00,32767.00,ALWS 1.0-beta,2013-04-14 09:55:00,
2013-04-14 04:00:00,25.2,6.4,29.83,North,355,0.0,1.0,44,0.00,,,0.00,32767.00,ALWS 1.0-beta,2013-04-14 10:00:00,
2013-04-14 04:05:00,24.8,7.0,29.83,North,355,0.0,0.0,46,0.00,,,0.00,32767.00,ALWS 1.0-beta,2013-04-14 10:05:00,
2013-04-14 04:10:00,24.5,6.2,29.83,North,355,0.0,0.0,45,0.00,,,0.00,32767.00,ALWS 1.0-beta,2013-04-14 10:10:00,
2013-04-14 04:15:00,24.4,5.6,29.84,North,355,0.0,0.0,44,0.00,,,0.00,32767.00,ALWS 1.0-beta,2013-04-14 10:15:00,
2013-04-14 04:20:00,24.4,5.6,29.84,North,355,0.0,0.0,44,0.00,,,0.00,32767.00,ALWS 1.0-beta,2013-04-14 10:20:00,
2013-04-14 04:25:00,24.3,5.0,29.84,North,355,0.0,0.0,43,0.00,,,0.00,32767.00,ALWS 1.0-beta,2013-04-14 10:25:00,
2013-04-14 04:30:00,24.4,5.1,29.84,North,355,0.0,0.0,43,0.00,,,0.00,32767.00,ALWS 1.0-beta,2013-04-14 10:30:00,
2013-04-14 04:35:00,24.2,4.9,29.85,North,355,0.0,0.0,43,0.00,,,0.00,32767.00,ALWS 1.0-beta,2013-04-14 10:35:00,
2013-04-14 04:40:00,23.9,4.7,29.85,North,355,0.0,0.0,43,0.00,,,0.00,32767.00,ALWS 1.0-beta,2013-04-14 10:40:00,
2013-04-14 04:45:00,23.8,5.1,29.85,North,355,0.0,0.0,44,0.00,,,0.00,32767.00,ALWS 1.0-beta,2013-04-14 10:45:00,
2013-04-14 04:50:00,23.5,5.8,29.85,North,355,0.0,0.0,46,0.00,,,0.00,32767.00,ALWS 1.0-beta,2013-04-14 10:50:00,
2013-04-14 04:55:00,23.3,5.1,29.85,North,355,2.0,2.0,45,0.00,,,0.00,32767.00,ALWS 1.0-beta,2013-04-14 10:55:00,
2013-04-14 05:00:00,23.4,5.2,29.86,East,84,1.0,3.0,45,0.00,,,0.00,32767.00,ALWS 1.0-beta,2013-04-14 11:00:00,
2013-04-14 05:05:00,23.3,4.6,29.86,East,84,0.0,4.0,44,0.00,,,0.00,32767.00,ALWS 1.0-beta,2013-04-14 11:05:00,
2013-04-14 05:10:00,23.1,5.9,29.86,East,83,0.0,0.0,47,0.00,,,0.00,32767.00,ALWS 1.0-beta,2013-04-14 11:10:00,
2013-04-14 05:15:00,22.6,6.8,29.86,East,83,3.0,3.0,50,0.00,,,0.00,32767.00,ALWS 1.0-beta,2013-04-14 11:15:00,
2013-04-14 05:20:00,22.4,5.7,29.86,East,83,0.0,0.0,48,0.00,,,0.00,32767.00,ALWS 1.0-beta,2013-04-14 11:20:00,
2013-04-14 05:25:00,22.5,5.8,29.86,East,84,0.0,4.0,48,0.00,,,0.00,32767.00,ALWS 1.0-beta,2013-04-14 11:25:00,
2013-04-14 05:30:00,22.4,6.6,29.87,East,82,0.0,1.0,50,0.00,,,0.00,32767.00,ALWS 1.0-beta,2013-04-14 11:30:00,
2013-04-14 05:35:00,22.1,8.0,29.87,ESE,103,5.0,7.0,54,0.00,,,0.00,32767.00,ALWS 1.0-beta,2013-04-14 11:35:00,
2013-04-14 05:40:00,21.8,8.1,29.87,ESE,106,3.0,6.0,55,0.00,,,0.00,32767.00,ALWS 1.0-beta,2013-04-14 11:40:00,
2013-04-14 05:45:00,21.4,7.8,29.87,East,98,4.0,6.0,55,0.00,,,0.00,32767.00,ALWS 1.0-beta,2013-04-14 11:45:00,
2013-04-14 05:50:00,21.1,7.1,29.87,East,98,6.0,9.0,54,0.00,,,0.00,32767.00,ALWS 1.0-beta,2013-04-14 11:50:00,
2013-04-14 05:55:00,20.9,6.9,29.87,East,91,6.0,8.0,54,0.00,,,0.00,32767.00,ALWS 1.0-beta,2013-04-14 11:55:00,
2013-04-14 06:00:00,20.9,6.9,29.87,East,96,5.0,6.0,54,0.00,,,0.00,32767.00,ALWS 1.0-beta,2013-04-14 12:00:00,
2013-04-14 06:05:00,20.5,6.9,29.87,East,101,5.0,6.0,55,0.00,,,0.00,32767.00,ALWS 1.0-beta,2013-04-14 12:05:00,
2013-04-14 06:10:00,20.3,6.7,29.88,East,99,2.0,5.0,55,0.00,,,0.00,32767.00,ALWS 1.0-beta,2013-04-14 12:10:00,
2013-04-14 06:15:00,20.3,6.7,29.88,East,95,5.0,7.0,55,0.00,,,0.00,32767.00,ALWS 1.0-beta,2013-04-14 12:15:00,
2013-04-14 06:20:00,20.3,6.7,29.88,ESE,103,5.0,7.0,55,0.00,,,0.00,32767.00,ALWS 1.0-beta,2013-04-14 12:20:00,
2013-04-14 06:25:00,20.2,6.6,29.88,East,93,3.0,4.0,55,0.00,,,0.00,32767.00,ALWS 1.0-beta,2013-04-14 12:25:00,
2013-04-14 06:30:00,20.7,6.3,29.89,East,101,3.0,5.0,53,0.00,,,0.00,32767.00,ALWS 1.0-beta,2013-04-14 12:30:00,
2013-04-14 06:35:00,21.1,6.7,29.89,East,98,4.0,6.0,53,0.00,,,0.00,32767.00,ALWS 1.0-beta,2013-04-14 12:35:00,
2013-04-14 06:40:00,21.3,6.4,29.89,East,101,4.0,7.0,52,0.00,,,0.00,32767.00,ALWS 1.0-beta,2013-04-14 12:40:00,
2013-04-14 06:45:00,21.1,7.1,29.89,East,99,6.0,11.0,54,0.00,,,0.00,32767.00,ALWS 1.0-beta,2013-04-14 12:45:00,
2013-04-14 06:50:00,20.9,7.3,29.90,East,91,6.0,10.0,55,0.00,,,0.00,32767.00,ALWS 1.0-beta,2013-04-14 12:50:00,
2013-04-14 06:55:00,20.9,7.3,29.90,East,91,11.0,11.0,55,0.00,,,0.00,32767.00,ALWS 1.0-beta,2013-04-14 12:55:00,
2013-04-14 07:00:00,20.8,7.2,29.90,ENE,74,9.0,11.0,55,0.00,,,0.00,32767.00,ALWS 1.0-beta,2013-04-14 13:00:00,
2013-04-14 07:05:00,20.9,7.3,29.90,East,83,10.0,11.0,55,0.00,,,0.00,32767.00,ALWS 1.0-beta,2013-04-14 13:05:00,
2013-04-14 07:10:00,20.8,7.2,29.91,East,80,6.0,9.0,55,0.00,,,0.00,32767.00,ALWS 1.0-beta,2013-04-14 13:10:00,
2013-04-14 07:15:00,20.6,7.4,29.91,East,83,8.0,10.0,56,0.00,,,0.00,32767.00,ALWS 1.0-beta,2013-04-14 13:15:00,
2013-04-14 07:20:00,20.7,7.1,29.91,East,87,6.0,12.0,55,0.00,,,0.00,32767.00,ALWS 1.0-beta,2013-04-14 13:20:00,
2013-04-14 07:25:00,21.2,8.0,29.91,East,98,7.0,10.0,56,0.00,,,0.00,32767.00,ALWS 1.0-beta,2013-04-14 13:25:00,
2013-04-14 07:30:00,21.4,8.6,29.91,East,100,11.0,11.0,57,0.00,,,0.00,32767.00,ALWS 1.0-beta,2013-04-14 13:30:00,
2013-04-14 07:35:00,21.5,7.8,29.91,East,98,12.0,16.0,55,0.00,,,0.00,32767.00,ALWS 1.0-beta,2013-04-14 13:35:00,
2013-04-14 07:40:00,21.8,8.9,29.92,East,80,7.0,11.0,57,0.00,,,0.00,32767.00,ALWS 1.0-beta,2013-04-14 13:40:00,
2013-04-14 07:45:00,22.0,8.7,29.92,East,100,10.0,12.0,56,0.00,,,0.00,32767.00,ALWS 1.0-beta,2013-04-14 13:45:00,
2013-04-14 07:50:00,22.3,9.4,29.92,East,79,7.0,10.0,57,0.00,,,0.00,32767.00,ALWS 1.0-beta,2013-04-14 13:50:00,
2013-04-14 07:55:00,22.4,9.5,29.93,East,84,6.0,12.0,57,0.00,,,0.00,32767.00,ALWS 1.0-beta,2013-04-14 13:55:00,
2013-04-14 08:00:00,22.8,10.2,29.93,ENE,67,5.0,12.0,58,0.00,,,0.00,32767.00,ALWS 1.0-beta,2013-04-14 14:00:00,
2013-04-14 08:05:00,22.9,10.0,29.93,East,84,10.0,11.0,57,0.00,,,0.00,32767.00,ALWS 1.0-beta,2013-04-14 14:05:00,
2013-04-14 08:10:00,23.5,10.9,29.93,East,96,7.0,9.0,58,0.00,,,0.00,32767.00,ALWS 1.0-beta,2013-04-14 14:10:00,
2013-04-14 08:15:00,23.9,10.9,29.93,East,98,7.0,10.0,57,0.00,,,0.00,32767.00,ALWS 1.0-beta,2013-04-14 14:15:00,
2013-04-14 08:20:00,24.2,11.2,29.93,East,86,7.0,12.0,57,0.00,,,0.00,32767.00,ALWS 1.0-beta,2013-04-14 14:20:00,
2013-04-14 08:25:00,24.3,11.7,29.93,East,90,6.0,12.0,58,0.00,,,0.00,32767.00,ALWS 1.0-beta,2013-04-14 14:25:00,
2013-04-14 08:30:00,24.7,12.0,29.94,East,87,6.0,9.0,58,0.00,,,0.00,32767.00,ALWS 1.0-beta,2013-04-14 14:30:00,
2013-04-14 08:35:00,24.7,11.6,29.94,East,101,4.0,10.0,57,0.00,,,0.00,32767.00,ALWS 1.0-beta,2013-04-14 14:35:00,
2013-04-14 08:40:00,25.2,11.7,29.94,East,94,6.0,7.0,56,0.00,,,0.00,32767.00,ALWS 1.0-beta,2013-04-14 14:40:00,
2013-04-14 08:45:00,25.5,12.0,29.94,ESE,107,6.0,7.0,56,0.00,,,0.00,32767.00,ALWS 1.0-beta,2013-04-14 14:45:00,
2013-04-14 08:50:00,25.8,12.3,29.94,ESE,104,5.0,9.0,56,0.00,,,0.00,32767.00,ALWS 1.0-beta,2013-04-14 14:50:00,
2013-04-14 08:55:00,26.3,12.3,29.94,ESE,107,3.0,6.0,55,0.00,,,0.00,32767.00,ALWS 1.0-beta,2013-04-14 14:55:00,
2013-04-14 09:00:00,26.8,12.4,29.94,East,99,4.0,7.0,54,0.00,,,0.00,32767.00,ALWS 1.0-beta,2013-04-14 15:00:00,
2013-04-14 09:05:00,27.2,12.4,29.94,ESE,106,3.0,5.0,53,0.00,,,0.00,32767.00,ALWS 1.0-beta,2013-04-14 15:05:00,
2013-04-14 09:10:00,28.0,12.2,29.94,East,100,3.0,3.0,51,0.00,,,0.00,32767.00,ALWS 1.0-beta,2013-04-14 15:10:00,
2013-04-14 09:15:00,28.3,11.1,29.94,ESE,103,3.0,3.0,48,0.00,,,0.00,32767.00,ALWS 1.0-beta,2013-04-14 15:15:00,
2013-04-14 09:20:00,28.5,9.9,29.94,ESE,111,0.0,0.0,45,0.00,,,0.00,32767.00,ALWS 1.0-beta,2013-04-14 15:20:00,
2013-04-14 09:25:00,29.3,9.1,29.94,ESE,111,0.0,0.0,42,0.00,,,0.00,32767.00,ALWS 1.0-beta,2013-04-14 15:25:00,
2013-04-14 09:30:00,30.3,8.3,29.94,ESE,111,0.0,1.0,39,0.00,,,0.00,32767.00,ALWS 1.0-beta,2013-04-14 15:30:00,
2013-04-14 09:35:00,30.9,8.9,29.94,ESE,111,0.0,2.0,39,0.00,,,0.00,32767.00,ALWS 1.0-beta,2013-04-14 15:35:00,
2013-04-14 09:40:00,31.3,9.8,29.94,West,263,4.0,5.0,40,0.00,,,0.00,32767.00,ALWS 1.0-beta,2013-04-14 15:40:00,
2013-04-14 09:45:00,30.7,8.7,29.94,SSW,205,4.0,5.0,39,0.00,,,0.00,32767.00,ALWS 1.0-beta,2013-04-14 15:45:00,
2013-04-14 09:50:00,30.8,10.4,29.94,NW,311,3.0,6.0,42,0.00,,,0.00,32767.00,ALWS 1.0-beta,2013-04-14 15:50:00,
2013-04-14 09:55:00,30.8,9.9,29.94,NNW,340,0.0,3.0,41,0.00,,,0.00,32767.00,ALWS 1.0-beta,2013-04-14 15:55:00,
2013-04-14 10:00:00,30.7,8.7,29.94,NNW,340,0.0,0.0,39,0.00,,,0.00,32767.00,ALWS 1.0-beta,2013-04-14 16:00:00,
2013-04-14 10:05:00,31.5,10.5,29.94,NNW,340,0.0,3.0,41,0.00,,,0.00,32767.00,ALWS 1.0-beta,2013-04-14 16:05:00,
2013-04-14 10:10:00,31.5,11.1,29.94,NNW,340,3.0,3.0,42,0.00,,,0.00,32767.00,ALWS 1.0-beta,2013-04-14 16:10:00,
2013-04-14 10:15:00,30.6,9.7,29.94,West,280,5.0,10.0,41,0.00,,,0.00,32767.00,ALWS 1.0-beta,2013-04-14 16:15:00,
2013-04-14 10:20:00,30.6,10.2,29.95,WNW,302,7.0,10.0,42,0.00,,,0.00,32767.00,ALWS 1.0-beta,2013-04-14 16:20:00,
2013-04-14 10:25:00,30.6,11.3,29.95,NW,305,4.0,6.0,44,0.00,,,0.00,32767.00,ALWS 1.0-beta,2013-04-14 16:25:00,
2013-04-14 10:30:00,30.5,11.7,29.95,NW,311,13.0,14.0,45,0.00,,,0.00,32767.00,ALWS 1.0-beta,2013-04-14 16:30:00,
2013-04-14 10:35:00,30.4,12.6,29.95,WNW,294,19.0,19.0,47,0.00,,,0.00,32767.00,ALWS 1.0-beta,2013-04-14 16:35:00,
2013-04-14 10:40:00,30.5,12.7,29.95,WNW,292,10.0,14.0,47,0.00,,,0.00,32767.00,ALWS 1.0-beta,2013-04-14 16:40:00,
2013-04-14 10:45:00,30.4,13.1,29.95,WNW,300,18.0,18.0,48,0.00,,,0.00,32767.00,ALWS 1.0-beta,2013-04-14 16:45:00,
2013-04-14 10:50:00,30.5,11.7,29.95,NW,319,12.0,12.0,45,0.00,,,0.00,32767.00,ALWS 1.0-beta,2013-04-14 16:50:00,
2013-04-14 10:55:00,30.8,12.0,29.95,NW,326,14.0,14.0,45,0.00,,,0.00,32767.00,ALWS 1.0-beta,2013-04-14 16:55:00,
2013-04-14 11:00:00,31.2,12.4,29.95,NNW,330,12.0,13.0,45,0.00,,,0.00,32767.00,ALWS 1.0-beta,2013-04-14 17:00:00,
2013-04-14 11:05:00,31.2,10.8,29.95,WNW,299,18.0,18.0,42,0.00,,,0.00,32767.00,ALWS 1.0-beta,2013-04-14 17:05:00,
2013-04-14 11:10:00,31.2,11.8,29.95,NW,323,11.0,11.0,44,0.00,,,0.00,32767.00,ALWS 1.0-beta,2013-04-14 17:10:00,
2013-04-14 11:15:00,31.1,10.2,29.95,NNW,331,14.0,14.0,41,0.00,,,0.00,32767.00,ALWS 1.0-beta,2013-04-14 17:15:00,
2013-04-14 11:20:00,31.2,10.8,29.96,WNW,302,10.0,10.0,42,0.00,,,0.00,32767.00,ALWS 1.0-beta,2013-04-14 17:20:00,
2013-04-14 11:25:00,31.4,9.3,29.96,NNW,331,9.0,10.0,39,0.00,,,0.00,32767.00,ALWS 1.0-beta,2013-04-14 17:25:00,
2013-04-14 11:30:00,31.8,12.4,29.96,WNW,301,15.0,15.0,44,0.00,,,0.00,32767.00,ALWS 1.0-beta,2013-04-14 17:30:00,
2013-04-14 11:35:00,32.0,9.9,29.96,WNW,300,14.0,14.0,39,0.00,,,0.00,32767.00,ALWS 1.0-beta,2013-04-14 17:35:00,
2013-04-14 11:40:00,31.8,11.3,29.96,NNW,339,10.0,10.0,42,0.00,,,0.00,32767.00,ALWS 1.0-beta,2013-04-14 17:40:00,
2013-04-14 11:45:00,32.2,12.8,29.96,NW,317,15.0,15.0,44,0.00,,,0.00,32767.00,ALWS 1.0-beta,2013-04-14 17:45:00,
2013-04-14 11:50:00,32.6,12.1,29.96,NW,315,15.0,15.0,42,0.00,,,0.00,32767.00,ALWS 1.0-beta,2013-04-14 17:50:00,
2013-04-14 11:55:00,32.6,13.1,29.96,NW,323,15.0,15.0,44,0.00,,,0.00,32767.00,ALWS 1.0-beta,2013-04-14 17:55:00,
2013-04-14 12:00:00,32.5,12.5,29.96,NW,304,20.0,20.0,43,0.00,,,0.00,32767.00,ALWS 1.0-beta,2013-04-14 18:00:00,
2013-04-14 12:05:00,32.6,13.1,29.97,NW,307,12.0,22.0,44,0.00,,,0.00,32767.00,ALWS 1.0-beta,2013-04-14 18:05:00,
2013-04-14 12:10:00,33.2,12.6,29.97,NW,322,16.0,21.0,42,0.00,,,0.00,32767.00,ALWS 1.0-beta,2013-04-14 18:10:00,
2013-04-14 12:15:00,33.4,11.1,29.97,WNW,293,18.0,26.0,39,0.00,,,0.00,32767.00,ALWS 1.0-beta,2013-04-14 18:15:00,
2013-04-14 12:20:00,33.1,10.9,29.97,NNW,337,13.0,20.0,39,0.00,,,0.00,32767.00,ALWS 1.0-beta,2013-04-14 18:20:00,
2013-04-14 12:25:00,32.7,11.1,29.96,NW,315,14.0,22.0,40,0.00,,,0.00,32767.00,ALWS 1.0-beta,2013-04-14 18:25:00,
2013-04-14 12:30:00,33.3,11.0,29.96,NW,317,17.0,23.0,39,0.00,,,0.00,32767.00,ALWS 1.0-beta,2013-04-14 18:30:00,
2013-04-14 12:35:00,33.1,10.3,29.97,NW,315,15.0,19.0,38,0.00,,,0.00,32767.00,ALWS 1.0-beta,2013-04-14 18:35:00,
2013-04-14 12:40:00,32.9,12.3,29.97,NW,314,11.0,25.0,42,0.00,,,0.00,32767.00,ALWS 1.0-beta,2013-04-14 18:40:00,
2013-04-14 12:45:00,34.0,13.3,29.97,NW,309,16.0,16.0,42,0.00,,,0.00,32767.00,ALWS 1.0-beta,2013-04-14 18:45:00,
2013-04-14 12:50:00,34.4,11.4,29.97,NW,306,13.0,20.0,38,0.00,,,0.00,32767.00,ALWS 1.0-beta,2013-04-14 18:50:00,
2013-04-14 12:55:00,34.4,12.0,29.97,NNW,330,12.0,17.0,39,0.00,,,0.00,32767.00,ALWS 1.0-beta,2013-04-14 18:55:00,
2013-04-14 13:00:00,33.5,11.2,29.97,NW,312,18.0,21.0,39,0.00,,,0.00,32767.00,ALWS 1.0-beta,2013-04-14 19:00:00,
2013-04-14 13:05:00,33.6,10.7,29.97,NW,310,22.0,22.0,38,0.00,,,0.00,32767.00,ALWS 1.0-beta,2013-04-14 19:05:00,
2013-04-14 13:10:00,33.4,8.1,29.97,NW,322,4.0,18.0,34,0.00,,,0.00,32767.00,ALWS 1.0-beta,2013-04-14 19:10:00,
2013-04-14 13:15:00,33.2,7.9,29.96,NW,323,4.0,18.0,34,0.00,,,0.00,32767.00,ALWS 1.0-beta,2013-04-14 19:15:00,
2013-04-14 13:20:00,33.5,10.6,29.96,WNW,283,11.0,17.0,38,0.00,,,0.00,32767.00,ALWS 1.0-beta,2013-04-14 19:20:00,
2013-04-14 13:25:00,33.7,9.0,29.96,WNW,292,7.0,16.0,35,0.00,,,0.00,32767.00,ALWS 1.0-beta,2013-04-14 19:25:00,
2013-04-14 13:30:00,33.7,9.6,29.96,NW,307,12.0,21.0,36,0.00,,,0.00,32767.00,ALWS 1.0-beta,2013-04-14 19:30:00,
2013-04-14 13:35:00,33.5,9.4,29.96,NW,313,6.0,14.0,36,0.00,,,0.00,32767.00,ALWS 1.0-beta,2013-04-14 19:35:00,
2013-04-14 13:40:00,33.7,9.0,29.96,NNW,345,0.0,14.0,35,0.00,,,0.00,32767.00,ALWS 1.0-beta,2013-04-14 19:40:00,
2013-04-14 13:45:00,33.9,8.5,29.95,NW,309,7.0,17.0,34,0.00,,,0.00,32767.00,ALWS 1.0-beta,2013-04-14 19:45:00,
2013-04-14 13:50:00,34.2,11.3,29.95,NW,318,11.0,14.0,38,0.00,,,0.00,32767.00,ALWS 1.0-beta,2013-04-14 19:50:00,
2013-04-14 13:55:00,34.4,10.2,29.95,NW,317,6.0,13.0,36,0.00,,,0.00,32767.00,ALWS 1.0-beta,2013-04-14 19:55:00,
2013-04-14 14:00:00,34.5,9.0,29.94,NW,309,12.0,14.0,34,0.00,,,0.00,32767.00,ALWS 1.0-beta,2013-04-14 20:00:00,
2013-04-14 14:05:00,34.9,10.7,29.94,NW,325,12.0,17.0,36,0.00,,,0.00,32767.00,ALWS 1.0-beta,2013-04-14 20:05:00,
2013-04-14 14:10:00,35.2,11.6,29.94,WNW,301,15.0,15.0,37,0.00,,,0.00,32767.00,ALWS 1.0-beta,2013-04-14 20:10:00,
2013-04-14 14:15:00,35.1,6.8,29.94,NW,317,7.0,12.0,30,0.00,,,0.00,32767.00,ALWS 1.0-beta,2013-04-14 20:15:00,
2013-04-14 14:20:00,35.0,10.1,29.93,NNW,335,20.0,20.0,35,0.00,,,0.00,32767.00,ALWS 1.0-beta,2013-04-14 20:20:00,
2013-04-14 14:25:00,35.3,6.2,29.93,NW,326,12.0,20.0,29,0.00,,,0.00,32767.00,ALWS 1.0-beta,2013-04-14 20:25:00,
2013-04-14 14:30:00,35.2,8.3,29.93,West,259,10.0,15.0,32,0.00,,,0.00,32767.00,ALWS 1.0-beta,2013-04-14 20:30:00,
2013-04-14 14:35:00,35.5,11.2,29.93,West,275,7.0,19.0,36,0.00,,,0.00,32767.00,ALWS 1.0-beta,2013-04-14 20:35:00,
2013-04-14 14:40:00,36.0,7.6,29.93,NW,313,3.0,7.0,30,0.00,,,0.00,32767.00,ALWS 1.0-beta,2013-04-14 20:40:00,
2013-04-14 14:45:00,36.1,8.4,29.93,NW,322,11.0,18.0,31,0.00,,,0.00,32767.00,ALWS 1.0-beta,2013-04-14 20:45:00,
2013-04-14 14:50:00,36.1,8.4,29.92,WNW,298,12.0,19.0,31,0.00,,,0.00,32767.00,ALWS 1.0-beta,2013-04-14 20:50:00,
2013-04-14 14:55:00,36.5,10.1,29.92,NW,312,9.0,17.0,33,0.00,,,0.00,32767.00,ALWS 1.0-beta,2013-04-14 20:55:00,
2013-04-14 15:00:00,36.3,7.8,29.92,NW,311,11.0,17.0,30,0.00,,,0.00,32767.00,ALWS 1.0-beta,2013-04-14 21:00:00,
2013-04-14 15:05:00,36.3,7.8,29.92,WNW,300,10.0,15.0,30,0.00,,,0.00,32767.00,ALWS 1.0-beta,2013-04-14 21:05:00,
2013-04-14 15:10:00,36.6,10.2,29.92,NW,315,13.0,19.0,33,0.00,,,0.00,32767.00,ALWS 1.0-beta,2013-04-14 21:10:00,
2013-04-14 15:15:00,37.2,8.6,29.92,NW,317,6.0,19.0,30,0.00,,,0.00,32767.00,ALWS 1.0-beta,2013-04-14 21:15:00,
2013-04-14 15:20:00,37.2,7.1,29.92,WNW,283,9.0,15.0,28,0.00,,,0.00,32767.00,ALWS 1.0-beta,2013-04-14 21:20:00,
2013-04-14 15:25:00,36.8,9.0,29.91,NW,311,6.0,14.0,31,0.00,,,0.00,32767.00,ALWS 1.0-beta,2013-04-14 21:25:00,
2013-04-14 15:30:00,36.6,7.4,29.91,NW,323,2.0,16.0,29,0.00,,,0.00,32767.00,ALWS 1.0-beta,2013-04-14 21:30:00,
2013-04-14 15:35:00,37.0,9.2,29.91,NW,309,7.0,8.0,31,0.00,,,0.00,32767.00,ALWS 1.0-beta,2013-04-14 21:35:00,
2013-04-14 15:40:00,37.4,8.8,29.90,NNW,344,12.0,14.0,30,0.00,,,0.00,32767.00,ALWS 1.0-beta,2013-04-14 21:40:00,
2013-04-14 15:45:00,37.2,9.4,29.90,NW,314,14.0,18.0,31,0.00,,,0.00,32767.00,ALWS 1.0-beta,2013-04-14 21:45:00,
2013-04-14 15:50:00,37.0,9.2,29.90,West,279,2.0,14.0,31,0.00,,,0.00,32767.00,ALWS 1.0-beta,2013-04-14 21:50:00,
2013-04-14 15:57:00,37.1,11.3,29.90,NW,314,14.0,14.0,34,0.00,,,0.00,32767.00,ALWS 1.0-beta,2013-04-14 21:57:00,
2013-04-14 16:02:00,36.8,9.0,29.89,NW,311,3.0,15.0,31,0.00,,,0.00,32767.00,ALWS 1.0-beta,2013-04-14 22:02:00,
2013-04-14 16:07:00,36.7,8.9,29.89,NW,317,4.0,4.0,31,0.00,,,0.00,32767.00,ALWS 1.0-beta,2013-04-14 22:07:00,
2013-04-14 16:12:00,37.1,10.7,29.89,NW,321,11.0,11.0,33,0.00,,,0.00,32767.00,ALWS 1.0-beta,2013-04-14 22:12:00,
2013-04-14 16:17:00,37.6,10.4,29.89,NNW,343,14.0,14.0,32,0.00,,,0.00,32767.00,ALWS 1.0-beta,2013-04-14 22:17:00,
2013-04-14 16:22:00,37.4,10.2,29.89,WNW,302,6.0,6.0,32,0.00,,,0.00,32767.00,ALWS 1.0-beta,2013-04-14 22:22:00,
2013-04-14 16:27:00,37.5,11.7,29.89,NW,318,17.0,17.0,34,0.00,,,0.00,32767.00,ALWS 1.0-beta,2013-04-14 22:27:00,
2013-04-14 16:32:00,37.3,10.2,29.89,NNW,342,12.0,17.0,32,0.00,,,0.00,32767.00,ALWS 1.0-beta,2013-04-14 22:32:00,
2013-04-14 16:37:00,37.2,10.1,29.89,NW,319,13.0,15.0,32,0.00,,,0.00,32767.00,ALWS 1.0-beta,2013-04-14 22:37:00,
2013-04-14 16:43:00,37.2,10.1,29.89,NNW,344,5.0,5.0,32,0.00,,,0.00,32767.00,ALWS 1.0-beta,2013-04-14 22:43:00,
2013-04-14 16:48:00,37.5,9.6,29.89,NW,314,11.0,17.0,31,0.00,,,0.00,32767.00,ALWS 1.0-beta,2013-04-14 22:48:00,
2013-04-14 16:53:00,37.4,9.5,29.89,NNW,336,10.0,14.0,31,0.00,,,0.00,32767.00,ALWS 1.0-beta,2013-04-14 22:53:00,
2013-04-14 16:58:00,37.4,11.6,29.89,North,349,11.0,15.0,34,0.00,,,0.00,32767.00,ALWS 1.0-beta,2013-04-14 22:58:00,
2013-04-14 17:03:00,37.4,10.2,29.89,North,11,7.0,16.0,32,0.00,,,0.00,32767.00,ALWS 1.0-beta,2013-04-14 23:03:00,
2013-04-14 17:08:00,37.4,8.1,29.89,NW,309,10.0,13.0,29,0.00,,,0.00,32767.00,ALWS 1.0-beta,2013-04-14 23:08:00,
2013-04-14 17:13:00,37.4,10.9,29.89,NNW,342,6.0,14.0,33,0.00,,,0.00,32767.00,ALWS 1.0-beta,2013-04-14 23:13:00,
2013-04-14 17:18:00,37.4,10.9,29.89,NNW,344,10.0,12.0,33,0.00,,,0.00,32767.00,ALWS 1.0-beta,2013-04-14 23:18:00,
2013-04-14 17:23:00,37.5,10.3,29.89,North,360,3.0,12.0,32,0.00,,,0.00,32767.00,ALWS 1.0-beta,2013-04-14 23:23:00,
2013-04-14 17:28:00,37.7,11.9,29.88,NW,326,13.0,16.0,34,0.00,,,0.00,32767.00,ALWS 1.0-beta,2013-04-14 23:28:00,
2013-04-14 17:33:00,37.7,10.5,29.89,NNW,331,11.0,15.0,32,0.00,,,0.00,32767.00,ALWS 1.0-beta,2013-04-14 23:33:00,
2013-04-14 17:38:00,37.8,9.9,29.89,NW,324,11.0,13.0,31,0.00,,,0.00,32767.00,ALWS 1.0-beta,2013-04-14 23:38:00,
2013-04-14 17:43:00,38.0,9.3,29.89,NNW,333,8.0,13.0,30,0.00,,,0.00,32767.00,ALWS 1.0-beta,2013-04-14 23:43:00,
2013-04-14 17:48:00,38.3,10.3,29.88,NW,304,10.0,14.0,31,0.00,,,0.00,32767.00,ALWS 1.0-beta,2013-04-14 23:48:00,
2013-04-14 17:53:00,38.5,9.0,29.88,NNW,342,7.0,12.0,29,0.00,,,0.00,32767.00,ALWS 1.0-beta,2013-04-14 23:53:00,
2013-04-14 17:58:00,38.4,8.1,29.87,NNW,333,10.0,13.0,28,0.00,,,0.00,32767.00,ALWS 1.0-beta,2013-04-14 23:58:00,
2013-04-14 18:03:00,38.0,10.1,29.87,NNW,330,5.0,13.0,31,0.00,,,0.00,32767.00,ALWS 1.0-beta,2013-04-15 00:03:00,
2013-04-14 18:08:00,37.9,7.7,29.87,NNW,343,4.0,11.0,28,0.00,,,0.00,32767.00,ALWS 1.0-beta,2013-04-15 00:08:00,
2013-04-14 18:13:00,37.8,9.2,29.87,NE,36,7.0,12.0,30,0.00,,,0.00,32767.00,ALWS 1.0-beta,2013-04-15 00:13:00,
2013-04-14 18:18:00,37.5,7.4,29.87,NNE,25,5.0,12.0,28,0.00,,,0.00,32767.00,ALWS 1.0-beta,2013-04-15 00:18:00,
2013-04-14 18:23:00,37.4,8.1,29.87,NNW,341,5.0,7.0,29,0.00,,,0.00,32767.00,ALWS 1.0-beta,2013-04-15 00:23:00,
2013-04-14 18:28:00,37.5,9.6,29.87,North,360,3.0,7.0,31,0.00,,,0.00,32767.00,ALWS 1.0-beta,2013-04-15 00:28:00,
2013-04-14 18:33:00,37.7,9.8,29.87,NNW,341,3.0,8.0,31,0.00,,,0.00,32767.00,ALWS 1.0-beta,2013-04-15 00:33:00,
2013-04-14 18:38:00,37.9,10.0,29.87,NW,315,4.0,7.0,31,0.00,,,0.00,32767.00,ALWS 1.0-beta,2013-04-15 00:38:00,
2013-04-14 18:43:00,37.6,8.2,29.87,NW,325,4.0,12.0,29,0.00,,,0.00,32767.00,ALWS 1.0-beta,2013-04-15 00:43:00,
2013-04-14 18:48:00,37.5,9.6,29.87,NNW,330,0.0,4.0,31,0.00,,,0.00,32767.00,ALWS 1.0-beta,2013-04-15 00:48:00,
2013-04-14 18:53:00,37.4,10.2,29.86,NNE,23,5.0,7.0,32,0.00,,,0.00,32767.00,ALWS 1.0-beta,2013-04-15 00:53:00,
2013-04-14 18:58:00,37.2,9.4,29.86,North,9,4.0,4.0,31,0.00,,,0.00,32767.00,ALWS 1.0-beta,2013-04-15 00:58:00,
2013-04-14 19:03:00,37.1,10.0,29.86,NE,37,5.0,11.0,32,0.00,,,0.00,32767.00,ALWS 1.0-beta,2013-04-15 01:03:00,
2013-04-14 19:08:00,36.8,10.4,29.85,ENE,57,9.0,10.0,33,0.00,,,0.00,32767.00,ALWS 1.0-beta,2013-04-15 01:08:00,
2013-04-14 19:13:00,36.6,9.6,29.85,NNE,26,4.0,6.0,32,0.00,,,0.00,32767.00,ALWS 1.0-beta,2013-04-15 01:13:00,
2013-04-14 19:18:00,36.6,11.6,29.85,North,5,3.0,6.0,35,0.00,,,0.00,32767.00,ALWS 1.0-beta,2013-04-15 01:18:00,
2013-04-14 19:23:00,36.3,11.3,29.85,NNE,28,5.0,11.0,35,0.00,,,0.00,32767.00,ALWS 1.0-beta,2013-04-15 01:23:00,
2013-04-14 19:28:00,36.0,10.4,29.85,ENE,68,7.0,11.0,34,0.00,,,0.00,32767.00,ALWS 1.0-beta,2013-04-15 01:28:00,
2013-04-14 19:33:00,35.8,10.2,29.84,ENE,69,9.0,9.0,34,0.00,,,0.00,32767.00,ALWS 1.0-beta,2013-04-15 01:33:00,
2013-04-14 19:38:00,35.5,10.6,29.84,ENE,63,7.0,11.0,35,0.00,,,0.00,32767.00,ALWS 1.0-beta,2013-04-15 01:38:00,
2013-04-14 19:43:00,35.2,10.9,29.84,ENE,74,6.0,9.0,36,0.00,,,0.00,32767.00,ALWS 1.0-beta,2013-04-15 01:43:00,
2013-04-14 19:48:00,34.9,10.7,29.84,ENE,64,6.0,14.0,36,0.00,,,0.00,32767.00,ALWS 1.0-beta,2013-04-15 01:48:00,
2013-04-14 19:53:00,34.7,11.7,29.84,East,94,5.0,12.0,38,0.00,,,0.00,32767.00,ALWS 1.0-beta,2013-04-15 01:53:00,
2013-04-14 19:58:00,34.4,11.4,29.84,ENE,68,7.0,14.0,38,0.00,,,0.00,32767.00,ALWS 1.0-beta,2013-04-15 01:58:00,
2013-04-14 20:03:00,34.4,10.8,29.84,NE,54,11.0,14.0,37,0.00,,,0.00,32767.00,ALWS 1.0-beta,2013-04-15 02:03:00,
2013-04-14 20:08:00,34.4,11.4,29.83,ENE,57,9.0,12.0,38,0.00,,,0.00,32767.00,ALWS 1.0-beta,2013-04-15 02:08:00,
2013-04-14 20:13:00,34.2,11.8,29.83,East,86,5.0,12.0,39,0.00,,,0.00,32767.00,ALWS 1.0-beta,2013-04-15 02:13:00,
2013-04-14 20:19:00,34.1,11.8,29.83,ENE,62,13.0,13.0,39,0.00,,,0.00,32767.00,ALWS 1.0-beta,2013-04-15 02:19:00,
2013-04-14 20:24:00,33.9,11.6,29.83,NE,54,13.0,14.0,39,0.00,,,0.00,32767.00,ALWS 1.0-beta,2013-04-15 02:24:00,
2013-04-14 20:29:00,33.8,12.1,29.83,NE,42,10.0,12.0,40,0.00,,,0.00,32767.00,ALWS 1.0-beta,2013-04-15 02:29:00,
2013-04-14 20:34:00,33.7,12.5,29.83,ENE,74,6.0,13.0,41,0.00,,,0.00,32767.00,ALWS 1.0-beta,2013-04-15 02:34:00,
2013-04-14 20:39:00,33.7,11.4,29.84,East,82,6.0,14.0,39,0.00,,,0.00,32767.00,ALWS 1.0-beta,2013-04-15 02:39:00,
2013-04-14 20:44:00,33.6,12.4,29.83,NE,53,11.0,11.0,41,0.00,,,0.00,32767.00,ALWS 1.0-beta,2013-04-15 02:44:00,
2013-04-14 20:49:00,33.6,12.4,29.83,ENE,75,6.0,13.0,41,0.00,,,0.00,32767.00,ALWS 1.0-beta,2013-04-15 02:49:00,
2013-04-14 20:54:00,33.5,12.9,29.83,ENE,60,8.0,12.0,42,0.00,,,0.00,32767.00,ALWS 1.0-beta,2013-04-15 02:54:00,
2013-04-14 20:59:00,33.5,12.3,29.83,ENE,59,9.0,12.0,41,0.00,,,0.00,32767.00,ALWS 1.0-beta,2013-04-15 02:59:00,
2013-04-14 21:04:00,33.5,12.9,29.83,NE,55,9.0,11.0,42,0.00,,,0.00,32767.00,ALWS 1.0-beta,2013-04-15 03:04:00,
2013-04-14 21:09:00,33.5,12.3,29.83,NE,49,6.0,13.0,41,0.00,,,0.00,32767.00,ALWS 1.0-beta,2013-04-15 03:09:00,
2013-04-14 21:14:00,33.5,12.9,29.83,NNE,32,15.0,15.0,42,0.00,,,0.00,32767.00,ALWS 1.0-beta,2013-04-15 03:14:00,
2013-04-14 21:19:00,33.5,12.9,29.83,NE,38,7.0,13.0,42,0.00,,,0.00,32767.00,ALWS 1.0-beta,2013-04-15 03:19:00,
2013-04-14 21:24:00,33.4,13.9,29.83,ENE,61,9.0,16.0,44,0.00,,,0.00,32767.00,ALWS 1.0-beta,2013-04-15 03:24:00,
2013-04-14 21:29:00,33.2,14.2,29.84,NE,46,13.0,13.0,45,0.00,,,0.00,32767.00,ALWS 1.0-beta,2013-04-15 03:29:00,
2013-04-14 21:34:00,32.9,14.4,29.84,NNE,30,9.0,13.0,46,0.00,,,0.00,32767.00,ALWS 1.0-beta,2013-04-15 03:34:00,
2013-04-14 21:39:00,32.6,14.6,29.84,NE,49,9.0,12.0,47,0.00,,,0.00,32767.00,ALWS 1.0-beta,2013-04-15 03:39:00,
2013-04-14 21:44:00,32.3,14.8,29.84,ENE,65,13.0,14.0,48,0.00,,,0.00,32767.00,ALWS 1.0-beta,2013-04-15 03:44:00,
2013-04-14 21:49:00,32.1,15.6,29.84,NE,49,13.0,14.0,50,0.00,,,0.00,32767.00,ALWS 1.0-beta,2013-04-15 03:49:00,
2013-04-14 21:54:00,31.9,15.8,29.83,NE,42,12.0,14.0,51,0.00,,,0.00,32767.00,ALWS 1.0-beta,2013-04-15 03:54:00,
2013-04-14 21:59:00,31.7,16.1,29.84,NNE,32,14.0,14.0,52,0.00,,,0.00,32767.00,ALWS 1.0-beta,2013-04-15 03:59:00,
2013-04-14 22:00:00,31.7,16.1,29.84,NNE,32,10.0,14.0,52,0.00,,,0.00,32767.00,ALWS 1.0-beta,2013-04-15 04:00:00,
2013-04-14 22:05:00,31.7,16.1,29.84,NNE,32,9.0,11.0,52,0.00,,,0.00,32767.00,ALWS 1.0-beta,2013-04-15 04:05:00,
2013-04-14 22:10:00,31.8,16.6,29.85,NE,51,7.0,10.0,53,0.00,,,0.00,32767.00,ALWS 1.0-beta,2013-04-15 04:10:00,
2013-04-14 22:15:00,31.8,16.6,29.85,NE,38,4.0,6.0,53,0.00,,,0.00,32767.00,ALWS 1.0-beta,2013-04-15 04:15:00,
2013-04-14 22:20:00,31.8,16.6,29.86,North,351,4.0,4.0,53,0.00,,,0.00,32767.00,ALWS 1.0-beta,2013-04-15 04:20:00,
2013-04-14 22:25:00,31.8,16.6,29.86,NNW,334,5.0,5.0,53,0.00,,,0.00,32767.00,ALWS 1.0-beta,2013-04-15 04:25:00,
2013-04-14 22:30:00,31.6,17.3,29.85,NW,311,11.0,11.0,55,0.00,,,0.00,32767.00,ALWS 1.0-beta,2013-04-15 04:30:00,
2013-04-14 22:35:00,31.2,18.2,29.85,WNW,292,0.0,7.0,58,0.00,,,0.00,32767.00,ALWS 1.0-beta,2013-04-15 04:35:00,
2013-04-14 22:40:00,31.0,18.0,29.85,NW,311,3.0,5.0,58,0.00,,,0.00,32767.00,ALWS 1.0-beta,2013-04-15 04:40:00,
2013-04-14 22:45:00,31.0,19.1,29.85,NW,310,0.0,4.0,61,0.00,,,0.00,32767.00,ALWS 1.0-beta,2013-04-15 04:45:00,
2013-04-14 22:50:00,30.7,19.2,29.85,NW,310,0.0,0.0,62,0.00,,,0.00,32767.00,ALWS 1.0-beta,2013-04-15 04:50:00,
2013-04-14 22:55:00,30.4,19.3,29.84,WNW,282,7.0,8.0,63,0.00,,,0.00,32767.00,ALWS 1.0-beta,2013-04-15 04:55:00,
2013-04-14 23:00:00,30.1,19.8,29.84,West,262,6.0,8.0,65,0.00,,,0.00,32767.00,ALWS 1.0-beta,2013-04-15 05:00:00,
2013-04-14 23:05:00,30.0,20.0,29.84,West,262,0.0,3.0,66,0.00,,,0.00,32767.00,ALWS 1.0-beta,2013-04-15 05:05:00,
2013-04-14 23:10:00,30.1,20.1,29.85,West,261,0.0,3.0,66,0.00,,,0.00,32767.00,ALWS 1.0-beta,2013-04-15 05:10:00,
2013-04-14 23:15:00,29.9,20.3,29.86,West,274,7.0,9.0,67,0.00,,,0.00,32767.00,ALWS 1.0-beta,2013-04-15 05:15:00,
2013-04-14 23:20:00,29.3,21.1,29.86,WNW,287,5.0,7.0,71,0.00,,,0.00,32767.00,ALWS 1.0-beta,2013-04-15 05:20:00,
2013-04-14 23:25:00,28.7,21.5,29.85,WNW,290,5.0,8.0,74,0.00,,,0.00,32767.00,ALWS 1.0-beta,2013-04-15 05:25:00,
2013-04-14 23:30:00,28.3,21.4,29.84,WNW,290,3.0,4.0,75,0.00,,,0.00,32767.00,ALWS 1.0-beta,2013-04-15 05:30:00,
2013-04-14 23:35:00,28.0,21.7,29.83,WNW,290,0.0,0.0,77,0.00,,,0.00,32767.00,ALWS 1.0-beta,2013-04-15 05:35:00,
2013-04-14 23:40:00,27.9,21.6,29.82,WNW,290,0.0,0.0,77,0.00,,,0.00,32767.00,ALWS 1.0-beta,2013-04-15 05:40:00,
2013-04-14 23:45:00,27.9,21.9,29.80,WNW,290,0.0,1.0,78,0.00,,,0.00,32767.00,ALWS 1.0-beta,2013-04-15 05:45:00,
2013-04-14 23:50:00,27.8,21.9,29.79,WNW,290,0.0,0.0,78,0.00,,,0.00,32767.00,ALWS 1.0-beta,2013-04-15 05:50:00,
2013-04-14 23:55:00,27.8,22.1,29.79,WNW,290,0.0,0.0,79,0.00,,,0.00,32767.00,ALWS 1.0-beta,2013-04-15 05:55:00,